Time;durP1;ratioP1;P1;durP2;ratioP2;P2;SDS_P1;SDS_P2;PMS_P1;PMS_P2;Temp;Humidity;BMP_temperature;BMP_pressure;BME280_temperature;BME280_humidity;BME280_pressure;Samples;Min_cycle;Max_cycle;Signal;HPM_P1;HPM_P2
2023/01/22 00:00:40;;;;;;;;;;;;;;;-2.28;100.00;103291.50;5051115;28;19962;-63
2023/01/22 00:03:05;;;;;;;;;;;;;;;-2.28;100.00;103293.31;5054152;28;19928;-63
2023/01/22 00:05:30;;;;;;;;;;;;;;;-2.29;100.00;103289.75;5066387;28;19927;-63
2023/01/22 00:07:56;;;;;;;;;;;;;;;-2.30;100.00;103288.00;5052832;28;19975;-63
2023/01/22 00:10:21;;;;;;;;;;;;;;;-2.32;100.00;103294.47;5064248;28;19960;-63
2023/01/22 00:12:46;;;;;;;;;;;;;;;-2.34;100.00;103299.91;5071343;28;20375;-63
2023/01/22 00:15:11;;;;;;;;;;;;;;;-2.35;100.00;103304.41;5070760;28;19970;-63
2023/01/22 00:17:36;;;;;;;;;;;;;;;-2.36;100.00;103304.50;5053277;28;20358;-64
2023/01/22 00:20:02;;;;;;;;;;;;;;;-2.33;100.00;103306.16;5058948;28;20023;-64
2023/01/22 00:22:27;;;;;;;;;;;;;;;-2.36;100.00;103305.38;5065687;28;19931;-64
2023/01/22 00:24:52;;;;;;;;;;;;;;;-2.33;100.00;103304.34;5049294;28;19921;-64
2023/01/22 00:27:18;;;;;;;;;;;;;;;-2.32;100.00;103295.31;5050725;28;19917;-64
2023/01/22 00:29:43;;;;;;;;;;;;;;;-2.32;100.00;103299.84;5060672;28;20276;-63
2023/01/22 00:32:08;;;;;;;;;;;;;;;-2.33;100.00;103288.22;5061496;28;20403;-64
2023/01/22 00:34:33;;;;;;;;;;;;;;;-2.35;100.00;103290.09;5067055;28;19921;-64
2023/01/22 00:36:58;;;;;;;;;;;;;;;-2.33;100.00;103276.53;5069358;28;19929;-64
2023/01/22 00:39:24;;;;;;;;;;;;;;;-2.32;100.00;103281.88;5056868;28;19921;-64
2023/01/22 00:41:49;;;;;;;;;;;;;;;-2.32;100.00;103279.16;5067498;28;20298;-64
2023/01/22 00:44:14;;;;;;;;;;;;;;;-2.38;100.00;103275.00;5069454;28;19969;-63
2023/01/22 00:46:39;;;;;;;;;;;;;;;-2.40;100.00;103278.72;5058375;28;20384;-64
2023/01/22 00:49:04;;;;;;;;;;;;;;;-2.42;100.00;103289.59;5065453;28;19916;-63
2023/01/22 00:51:32;;;;;;;;;;;;;;;-2.45;100.00;103278.97;5085854;28;19916;-64
2023/01/22 00:53:57;;;;;;;;;;;;;;;-2.44;100.00;103285.22;5052506;28;20453;-64
2023/01/22 00:56:22;;;;;;;;;;;;;;;-2.46;100.00;103277.25;5051059;28;19921;-64
2023/01/22 00:58:47;;;;;;;;;;;;;;;-2.46;100.00;103277.25;5049824;28;19916;-64
2023/01/22 01:01:14;;;;;;;;;;;;;;;-2.46;100.00;103274.56;5068110;28;19966;-64
2023/01/22 01:03:39;;;;;;;;;;;;;;;-2.47;100.00;103269.28;5070016;28;19925;-64
2023/01/22 01:06:06;;;;;;;;;;;;;;;-2.47;100.00;103272.84;5069592;28;20368;-64
2023/01/22 01:08:35;;;;;;;;;;;;;;;-2.45;100.00;103272.72;5064348;28;19955;-64
2023/01/22 01:11:02;;;;;;;;;;;;;;;-2.47;100.00;103256.69;5069438;28;19966;-64
2023/01/22 01:13:29;;;;;;;;;;;;;;;-2.47;100.00;103261.19;5068348;28;20314;-64
2023/01/22 01:15:59;;;;;;;;;;;;;;;-2.47;100.00;103254.00;5048892;28;19963;-64
2023/01/22 01:18:24;;;;;;;;;;;;;;;-2.49;100.00;103261.25;5049834;28;19967;-64
2023/01/22 01:20:56;;;;;;;;;;;;;;;-2.49;100.00;103260.41;5049616;28;20311;-64
2023/01/22 01:23:21;;;;;;;;;;;;;;;-2.53;100.00;103256.19;5049333;28;19921;-64
2023/01/22 01:25:47;;;;;;;;;;;;;;;-2.55;100.00;103250.00;5067972;28;19966;-64
2023/01/22 01:28:12;;;;;;;;;;;;;;;-2.58;100.00;103264.50;5054993;28;20383;-64
2023/01/22 01:30:37;;;;;;;;;;;;;;;-2.58;100.00;103269.88;5059388;28;19925;-66
2023/01/22 01:33:02;;;;;;;;;;;;;;;-2.63;100.00;103262.06;5069725;28;20260;-64
2023/01/22 01:35:27;;;;;;;;;;;;;;;-2.63;100.00;103261.19;5068548;28;19960;-64
2023/01/22 01:37:53;;;;;;;;;;;;;;;-2.64;100.00;103252.22;5066778;28;19920;-64
2023/01/22 01:40:18;;;;;;;;;;;;;;;-2.66;100.00;103247.91;5050825;28;19953;-63
2023/01/22 01:42:44;;;;;;;;;;;;;;;-2.69;100.00;103248.94;5071318;28;19921;-64
2023/01/22 01:45:18;;;;;;;;;;;;;;;-2.70;100.00;103244.50;5054864;28;19925;-64
2023/01/22 01:47:44;;;;;;;;;;;;;;;-2.70;100.00;103240.97;5053029;28;19916;-64
2023/01/22 01:50:10;;;;;;;;;;;;;;;-2.71;100.00;103240.09;5069162;28;19920;-64
2023/01/22 01:52:35;;;;;;;;;;;;;;;-2.73;100.00;103228.56;5057004;28;19920;-64
2023/01/22 01:55:00;;;;;;;;;;;;;;;-2.73;100.00;103233.94;5047695;28;20328;-64
2023/01/22 01:57:27;;;;;;;;;;;;;;;-2.76;100.00;103228.72;5049022;28;19941;-64
2023/01/22 01:59:53;;;;;;;;;;;;;;;-2.75;100.00;103219.69;5048490;28;19921;-64
2023/01/22 02:02:19;;;;;;;;;;;;;;;-2.77;100.00;103221.63;5049181;28;20252;-64
2023/01/22 02:04:44;;;;;;;;;;;;;;;-2.75;100.00;103221.50;5048705;28;20381;-64
2023/01/22 02:07:10;;;;;;;;;;;;;;;-2.74;100.00;103221.41;5055364;28;19917;-64
2023/01/22 02:09:35;;;;;;;;;;;;;;;-2.72;100.00;103216.84;5062250;28;20306;-64
2023/01/22 02:12:01;;;;;;;;;;;;;;;-2.70;100.00;103209.53;5066354;28;19923;-64
2023/01/22 02:14:28;;;;;;;;;;;;;;;-2.70;100.00;103204.16;5068736;28;19950;-64
2023/01/22 02:17:01;;;;;;;;;;;;;;;-2.69;100.00;103203.22;5052161;28;20338;-64
2023/01/22 02:19:26;;;;;;;;;;;;;;;-2.66;100.00;103199.50;5048525;28;19927;-64
2023/01/22 02:21:51;;;;;;;;;;;;;;;-2.65;100.00;103212.84;5056523;28;20007;-64
2023/01/22 02:24:16;;;;;;;;;;;;;;;-2.63;100.00;103212.78;5062404;28;19909;-64
2023/01/22 02:26:43;;;;;;;;;;;;;;;-2.61;100.00;103210.84;5068084;28;20341;-64
2023/01/22 02:29:09;;;;;;;;;;;;;;;-2.57;100.00;103206.19;5053717;28;20263;-64
2023/01/22 02:31:35;;;;;;;;;;;;;;;-2.57;100.00;103209.72;5048950;28;19948;-64
2023/01/22 02:34:04;;;;;;;;;;;;;;;-2.53;100.00;103211.31;5074009;28;19978;-64
2023/01/22 02:36:30;;;;;;;;;;;;;;;-2.53;100.00;103208.63;5051066;28;19932;-64
2023/01/22 02:38:55;;;;;;;;;;;;;;;-2.53;100.00;103205.06;5067190;28;19970;-64
2023/01/22 02:41:20;;;;;;;;;;;;;;;-2.53;100.00;103205.06;5070712;28;19921;-64
2023/01/22 02:43:46;;;;;;;;;;;;;;;-2.49;100.00;103204.75;5067971;28;19920;-64
2023/01/22 02:46:11;;;;;;;;;;;;;;;-2.52;100.00;103213.03;5068474;28;19956;-64
2023/01/22 02:48:36;;;;;;;;;;;;;;;-2.48;100.00;103213.72;5059361;28;19927;-64
2023/01/22 02:51:01;;;;;;;;;;;;;;;-2.41;100.00;103207.91;5067864;28;19978;-64
2023/01/22 02:53:26;;;;;;;;;;;;;;;-2.29;100.00;103205.44;5067273;28;19965;-64
2023/01/22 02:55:52;;;;;;;;;;;;;;;-2.22;100.00;103210.41;5066862;28;19917;-64
2023/01/22 02:58:17;;;;;;;;;;;;;;;-2.14;100.00;103212.63;5061440;28;19928;-64
2023/01/22 03:00:42;;;;;;;;;;;;;;;-2.09;100.00;103214.09;5048090;28;19924;-64
2023/01/22 03:03:14;;;;;;;;;;;;;;;-2.02;100.00;103206.53;5066005;28;19932;-65
2023/01/22 03:05:42;;;;;;;;;;;;;;;-1.97;100.00;103211.66;5055644;28;19931;-64
2023/01/22 03:08:07;;;;;;;;;;;;;;;-1.94;100.00;103206.94;5061588;28;20023;-65
2023/01/22 03:10:33;;;;;;;;;;;;;;;-1.89;100.00;103214.75;5048485;28;20051;-64
2023/01/22 03:21:15;;;;;;;;;;;;;;;-0.76;100.00;103204.13;5048554;28;19994;-64
2023/01/22 03:23:44;;;;;;;;;;;;;;;-1.38;100.00;103196.38;5046438;28;19952;-65
2023/01/22 03:26:10;;;;;;;;;;;;;;;-1.21;100.00;103206.13;5048347;28;19921;-64
2023/01/22 03:28:35;;;;;;;;;;;;;;;-1.50;100.00;103205.22;5063394;28;19917;-64
2023/01/22 03:31:00;;;;;;;;;;;;;;;-1.68;100.00;103194.59;5047706;28;19924;-65
2023/01/22 03:33:26;;;;;;;;;;;;;;;-1.72;100.00;103209.22;5047970;28;20302;-64
2023/01/22 03:35:51;;;;;;;;;;;;;;;-1.72;100.00;103201.16;5048956;28;20068;-65
2023/01/22 03:38:16;;;;;;;;;;;;;;;-1.74;100.00;103196.78;5066144;28;19989;-65
2023/01/22 03:40:41;;;;;;;;;;;;;;;-1.76;100.00;103187.94;5074500;28;19923;-65
2023/01/22 03:43:06;;;;;;;;;;;;;;;-1.77;100.00;103180.81;5071594;28;19923;-64
2023/01/22 03:45:32;;;;;;;;;;;;;;;-1.77;100.00;103183.50;5071244;28;19921;-65
2023/01/22 03:47:57;;;;;;;;;;;;;;;-1.77;100.00;103181.69;5071299;28;19921;-64
2023/01/22 03:50:23;;;;;;;;;;;;;;;-1.80;100.00;103181.00;5056520;28;20283;-65
2023/01/22 03:52:48;;;;;;;;;;;;;;;-1.77;100.00;103178.09;5061997;28;19966;-65
2023/01/22 03:55:13;;;;;;;;;;;;;;;-1.88;100.00;103171.53;5062028;28;19964;-65
2023/01/22 03:57:38;;;;;;;;;;;;;;;-1.90;100.00;103172.63;5051490;28;19959;-65
2023/01/22 04:00:06;;;;;;;;;;;;;;;-1.94;100.00;103174.63;5051498;28;20343;-64
2023/01/22 04:02:31;;;;;;;;;;;;;;;-1.99;100.00;103178.53;5051232;28;20298;-65
2023/01/22 04:04:57;;;;;;;;;;;;;;;-1.97;100.00;103179.34;5050758;28;19971;-65
2023/01/22 04:07:22;;;;;;;;;;;;;;;-1.96;100.00;103181.94;5064689;28;19923;-65
2023/01/22 04:09:47;;;;;;;;;;;;;;;-1.92;100.00;103182.63;5064958;28;19920;-65
2023/01/22 04:12:12;;;;;;;;;;;;;;;-1.87;100.00;103175.13;5069375;28;19912;-64
2023/01/22 04:14:37;;;;;;;;;;;;;;;-1.80;100.00;103181.88;5070301;28;20255;-67
2023/01/22 04:17:02;;;;;;;;;;;;;;;-1.77;100.00;103179.00;5057654;28;19921;-65
2023/01/22 04:19:28;;;;;;;;;;;;;;;-1.70;100.00;103171.41;5051266;28;19912;-65
2023/01/22 04:21:53;;;;;;;;;;;;;;;-1.63;100.00;103167.38;5050636;28;20330;-65
2023/01/22 04:24:20;;;;;;;;;;;;;;;-1.61;100.00;103177.09;5048352;28;20217;-65
2023/01/22 04:26:45;;;;;;;;;;;;;;;-1.11;100.00;103174.91;5050456;28;20713;-65
2023/01/22 04:29:10;;;;;;;;;;;;;;;-0.90;100.00;103173.53;5050778;28;19931;-65
2023/01/22 04:31:35;;;;;;;;;;;;;;;-1.34;100.00;103176.34;5059436;28;19924;-65
2023/01/22 04:34:00;;;;;;;;;;;;;;;-1.34;100.00;103179.03;5057406;28;20007;-65
2023/01/22 04:36:26;;;;;;;;;;;;;;;-1.21;100.00;103180.03;5060732;28;19921;-65
2023/01/22 04:38:51;;;;;;;;;;;;;;;-1.05;100.00;103171.81;5048901;28;19925;-65
2023/01/22 04:41:16;;;;;;;;;;;;;;;-1.33;100.00;103181.63;5059014;28;20363;-65
2023/01/22 04:43:41;;;;;;;;;;;;;;;-1.36;100.00;103171.06;5069618;28;20351;-65
2023/01/22 04:46:07;;;;;;;;;;;;;;;-1.31;100.00;103171.66;5050308;28;19921;-64
2023/01/22 04:48:32;;;;;;;;;;;;;;;-1.34;100.00;103171.81;5052751;28;19917;-64
2023/01/22 04:50:57;;;;;;;;;;;;;;;-1.41;100.00;103175.88;5054491;28;20374;-65
2023/01/22 04:53:22;;;;;;;;;;;;;;;-1.31;100.00;103165.38;5067056;28;19924;-65
2023/01/22 04:55:48;;;;;;;;;;;;;;;-1.42;100.00;103167.88;5069721;28;20003;-65
2023/01/22 04:58:13;;;;;;;;;;;;;;;-1.17;100.00;103161.78;5070062;28;20050;-65
2023/01/22 05:00:38;;;;;;;;;;;;;;;-0.81;100.00;103166.69;5061958;28;19927;-65
2023/01/22 05:03:03;;;;;;;;;;;;;;;-1.28;100.00;103158.91;5050222;28;19921;-65
2023/01/22 05:05:29;;;;;;;;;;;;;;;-0.57;100.00;103173.16;5051949;28;19917;-66
2023/01/22 05:07:54;;;;;;;;;;;;;;;-1.19;100.00;103169.13;5067763;28;19935;-64
2023/01/22 05:10:20;;;;;;;;;;;;;;;-1.14;100.00;103177.78;5062973;28;19916;-65
2023/01/22 05:12:45;;;;;;;;;;;;;;;-1.26;100.00;103175.88;5049642;28;19967;-65
2023/01/22 05:15:10;;;;;;;;;;;;;;;-1.27;100.00;103169.59;5050045;28;19952;-65
2023/01/22 05:17:36;;;;;;;;;;;;;;;-1.42;100.00;103163.38;5050295;28;19916;-65
2023/01/22 05:20:01;;;;;;;;;;;;;;;-0.79;100.00;103167.44;5049253;28;20420;-65
2023/01/22 05:22:26;;;;;;;;;;;;;;;-0.50;100.00;103167.38;5049573;28;20739;-65
2023/01/22 05:24:51;;;;;;;;;;;;;;;-1.28;100.00;103175.97;5049256;28;20023;-65
2023/01/22 05:27:16;;;;;;;;;;;;;;;-1.37;100.00;103173.84;5067316;28;19926;-65
2023/01/22 05:29:42;;;;;;;;;;;;;;;-1.12;100.00;103176.72;5049199;28;19925;-65
2023/01/22 05:32:07;;;;;;;;;;;;;;;-1.28;100.00;103181.34;5051574;28;19920;-67
2023/01/22 05:34:32;;;;;;;;;;;;;;;-1.19;100.00;103175.38;5078226;28;19920;-64
2023/01/22 05:36:57;;;;;;;;;;;;;;;-1.32;100.00;103186.09;5067944;28;19962;-64
2023/01/22 05:39:22;;;;;;;;;;;;;;;-1.38;100.00;103181.06;5068012;28;19916;-65
2023/01/22 05:41:47;;;;;;;;;;;;;;;-1.39;100.00;103189.25;5071087;28;20002;-65
2023/01/22 05:44:13;;;;;;;;;;;;;;;-0.98;100.00;103183.94;5059945;28;20012;-65
2023/01/22 05:46:39;;;;;;;;;;;;;;;-0.45;100.00;103176.03;5048995;28;19929;-65
2023/01/22 05:49:04;;;;;;;;;;;;;;;-0.82;100.00;103186.50;5080567;28;19973;-65
2023/01/22 05:51:30;;;;;;;;;;;;;;;-0.66;100.00;103183.69;5065941;28;20571;-65
2023/01/22 05:53:55;;;;;;;;;;;;;;;-0.84;100.00;103188.47;5053200;28;19921;-64
2023/01/22 05:56:20;;;;;;;;;;;;;;;-0.26;98.47;103190.03;5069283;28;19923;-65
2023/01/22 05:58:45;;;;;;;;;;;;;;;-0.73;99.62;103190.47;5068661;28;19916;-65
2023/01/22 06:01:11;;;;;;;;;;;;;;;-0.56;100.00;103185.72;5067747;28;19923;-65
2023/01/22 06:03:36;;;;;;;;;;;;;;;-0.97;100.00;103195.59;5070224;28;20295;-64
2023/01/22 06:06:03;;;;;;;;;;;;;;;-0.60;100.00;103194.97;5067980;28;19921;-65
2023/01/22 06:08:28;;;;;;;;;;;;;;;-0.65;100.00;103201.63;5067546;28;19920;-64
2023/01/22 06:11:07;;;;;;;;;;;;;;;-1.11;100.00;103199.19;5068565;28;19928;-65
2023/01/22 06:13:32;;;;;;;;;;;;;;;-1.15;100.00;103193.09;5052319;28;20015;-64
2023/01/22 06:15:58;;;;;;;;;;;;;;;-1.01;100.00;103191.34;5050725;28;20023;-64
2023/01/22 06:18:24;;;;;;;;;;;;;;;-1.08;100.00;103183.66;5060135;28;19966;-65
2023/01/22 06:20:49;;;;;;;;;;;;;;;-1.21;100.00;103198.91;5052953;28;19925;-65
2023/01/22 06:23:15;;;;;;;;;;;;;;;-1.21;100.00;103200.72;5067088;28;19927;-65
2023/01/22 06:25:40;;;;;;;;;;;;;;;-1.27;100.00;103199.25;5068767;28;19991;-65
2023/01/22 06:28:05;;;;;;;;;;;;;;;-1.24;100.00;103199.06;5068683;28;20335;-65
2023/01/22 06:30:31;;;;;;;;;;;;;;;-1.19;100.00;103196.97;5065937;28;19920;-65
2023/01/22 06:32:56;;;;;;;;;;;;;;;-1.18;100.00;103190.59;5068472;28;19927;-65
2023/01/22 06:35:21;;;;;;;;;;;;;;;-1.19;100.00;103194.25;5070204;28;20294;-65
2023/01/22 06:37:47;;;;;;;;;;;;;;;-1.12;100.00;103198.28;5065556;28;19916;-65
2023/01/22 06:40:12;;;;;;;;;;;;;;;-1.15;100.00;103195.81;5055347;28;19920;-64
2023/01/22 06:42:37;;;;;;;;;;;;;;;-1.15;100.00;103193.09;5068112;28;19921;-67
2023/01/22 06:45:03;;;;;;;;;;;;;;;-1.10;100.00;103191.00;5056772;28;20398;-65
2023/01/22 06:47:28;;;;;;;;;;;;;;;-1.08;100.00;103193.56;5064520;28;19927;-65
2023/01/22 06:49:53;;;;;;;;;;;;;;;-1.14;100.00;103199.38;5051004;28;20371;-65
2023/01/22 06:52:18;;;;;;;;;;;;;;;-1.07;100.00;103200.69;5068275;28;19916;-65
2023/01/22 06:54:43;;;;;;;;;;;;;;;-1.10;100.00;103207.16;5067143;28;20270;-65
2023/01/22 06:57:09;;;;;;;;;;;;;;;-1.09;100.00;103208.03;5068522;28;19920;-65
2023/01/22 06:59:34;;;;;;;;;;;;;;;-1.07;100.00;103209.66;5053816;28;20022;-65
2023/01/22 07:01:59;;;;;;;;;;;;;;;-1.08;100.00;103201.66;5095794;28;19912;-65
2023/01/22 07:04:24;;;;;;;;;;;;;;;-1.08;100.00;103207.06;5052398;28;20339;-64
2023/01/22 07:06:49;;;;;;;;;;;;;;;-1.06;100.00;103203.31;5060649;28;20450;-65
2023/01/22 07:09:15;;;;;;;;;;;;;;;-1.05;100.00;103207.75;5047582;28;19913;-64
2023/01/22 07:11:40;;;;;;;;;;;;;;;-1.00;100.00;103212.00;5054114;28;19949;-65
2023/01/22 07:14:05;;;;;;;;;;;;;;;-1.02;100.00;103209.38;5062273;28;19928;-65
2023/01/22 07:16:30;;;;;;;;;;;;;;;-0.99;100.00;103216.41;5052100;28;20337;-64
2023/01/22 07:18:55;;;;;;;;;;;;;;;-0.96;100.00;103208.09;5051853;28;19917;-65
2023/01/22 07:21:20;;;;;;;;;;;;;;;-0.97;100.00;103200.97;5065084;28;19963;-65
2023/01/22 07:23:46;;;;;;;;;;;;;;;-0.96;100.00;103210.81;5070244;28;20403;-65
2023/01/22 07:26:11;;;;;;;;;;;;;;;-0.94;100.00;103209.75;5071831;28;19928;-64
2023/01/22 07:28:36;;;;;;;;;;;;;;;-0.92;100.00;103215.03;5070860;28;19924;-65
2023/01/22 07:31:02;;;;;;;;;;;;;;;-0.90;100.00;103207.75;5069964;28;19931;-65
2023/01/22 07:33:27;;;;;;;;;;;;;;;-0.92;100.00;103209.66;5071311;28;20321;-65
2023/01/22 07:35:56;;;;;;;;;;;;;;;-0.93;100.00;103213.31;5072991;28;19920;-65
2023/01/22 07:38:21;;;;;;;;;;;;;;;-0.89;100.00;103209.47;5057470;28;20386;-65
2023/01/22 07:40:47;;;;;;;;;;;;;;;-0.88;100.00;103206.66;5060512;28;19913;-65
2023/01/22 07:43:13;;;;;;;;;;;;;;;-0.87;100.00;103210.22;5073778;28;19920;-65
2023/01/22 07:45:39;;;;;;;;;;;;;;;-0.88;100.00;103205.78;5070830;28;19928;-65
2023/01/22 07:48:06;;;;;;;;;;;;;;;-0.85;100.00;103216.41;5058913;28;19920;-65
2023/01/22 07:50:31;;;;;;;;;;;;;;;-0.84;100.00;103212.75;5055078;28;19920;-65
2023/01/22 07:52:59;;;;;;;;;;;;;;;-0.83;100.00;103209.06;5057114;28;19931;-64
2023/01/22 07:55:24;;;;;;;;;;;;;;;-0.84;100.00;103208.19;5070856;28;20003;-64
2023/01/22 07:57:59;;;;;;;;;;;;;;;-0.77;100.00;103219.47;5069569;28;20345;-64
2023/01/22 08:00:25;;;;;;;;;;;;;;;-0.74;100.00;103218.41;5050983;28;19913;-65
2023/01/22 08:02:50;;;;;;;;;;;;;;;-0.66;100.00;103218.75;5054229;28;19927;-65
2023/01/22 08:05:15;;;;;;;;;;;;;;;-0.69;100.00;103218.97;5061243;28;19960;-64
2023/01/22 08:07:41;;;;;;;;;;;;;;;-0.70;100.00;103223.50;5056170;28;19925;-65
2023/01/22 08:10:06;;;;;;;;;;;;;;;-0.64;100.00;103219.56;5066370;28;19921;-65
2023/01/22 08:12:31;;;;;;;;;;;;;;;-0.62;100.00;103226.56;5052311;28;19920;-65
2023/01/22 08:14:57;;;;;;;;;;;;;;;-0.60;100.00;103227.34;5057093;28;20589;-64
2023/01/22 08:17:22;;;;;;;;;;;;;;;-0.58;100.00;103220.00;5055941;28;19928;-64
2023/01/22 08:19:47;;;;;;;;;;;;;;;-0.53;100.00;103225.97;5064556;28;19921;-64
2023/01/22 08:22:12;;;;;;;;;;;;;;;-0.53;100.00;103220.56;5050558;28;20333;-64
2023/01/22 08:24:37;;;;;;;;;;;;;;;-0.49;100.00;103228.50;5048737;28;19917;-65
2023/01/22 08:27:02;;;;;;;;;;;;;;;-0.48;100.00;103232.91;5060716;28;19923;-62
2023/01/22 08:29:28;;;;;;;;;;;;;;;-0.48;100.00;103230.22;5090301;28;19916;-65
2023/01/22 08:31:53;;;;;;;;;;;;;;;-0.44;100.00;103237.16;5080365;28;20263;-62
2023/01/22 08:34:19;;;;;;;;;;;;;;;-0.46;100.00;103242.63;5068734;28;19945;-63
2023/01/22 08:36:44;;;;;;;;;;;;;;;-0.45;100.00;103240.81;5071141;28;19920;-62
2023/01/22 08:39:10;;;;;;;;;;;;;;;-0.44;100.00;103242.56;5067013;28;19922;-65
2023/01/22 08:41:35;;;;;;;;;;;;;;;-0.46;100.00;103242.63;5068883;28;20014;-63
2023/01/22 08:44:00;;;;;;;;;;;;;;;-0.42;100.00;103240.59;5068111;28;20363;-63
2023/01/22 08:46:26;;;;;;;;;;;;;;;-0.42;100.00;103240.59;5068397;28;19916;-62
2023/01/22 08:48:51;;;;;;;;;;;;;;;-0.41;100.00;103235.09;5067418;28;19963;-64
2023/01/22 08:51:16;;;;;;;;;;;;;;;-0.40;100.00;103236.84;5068134;28;19916;-63
2023/01/22 08:53:41;;;;;;;;;;;;;;;-0.33;100.00;103245.41;5066453;28;20287;-62
2023/01/22 08:56:06;;;;;;;;;;;;;;;-0.38;100.00;103237.59;5068516;28;19916;-63
2023/01/22 08:58:32;;;;;;;;;;;;;;;-0.34;100.00;103239.16;5068096;28;20003;-62
2023/01/22 09:00:57;;;;;;;;;;;;;;;-0.36;100.00;103242.91;5067719;28;20277;-63
2023/01/22 09:03:22;;;;;;;;;;;;;;;-0.35;100.00;103239.25;5068043;28;19978;-63
2023/01/22 09:05:47;;;;;;;;;;;;;;;-0.42;100.00;103241.47;5068091;28;20430;-63
2023/01/22 09:08:13;;;;;;;;;;;;;;;-0.42;100.00;103241.47;5066130;28;20370;-62
2023/01/22 09:10:38;;;;;;;;;;;;;;;-0.39;100.00;103241.28;5067751;28;19920;-65
2023/01/22 09:13:03;;;;;;;;;;;;;;;-0.37;100.00;103242.03;5068072;28;19985;-63
2023/01/22 09:15:28;;;;;;;;;;;;;;;-0.29;100.00;103238.84;5067440;28;19916;-62
2023/01/22 09:17:53;;;;;;;;;;;;;;;-0.30;100.00;103248.78;5067252;28;19924;-62
2023/01/22 09:20:19;;;;;;;;;;;;;;;-0.30;100.00;103245.22;5067696;28;19916;-63
2023/01/22 09:22:44;;;;;;;;;;;;;;;-0.29;100.00;103250.50;5066099;28;20328;-63
2023/01/22 09:25:10;;;;;;;;;;;;;;;-0.27;100.00;103250.41;5066917;28;19927;-66
2023/01/22 09:27:35;;;;;;;;;;;;;;;-0.26;100.00;103244.03;5064541;28;20654;-62
2023/01/22 09:30:00;;;;;;;;;;;;;;;-0.19;100.00;103247.22;5049328;28;19920;-63
2023/01/22 09:32:26;;;;;;;;;;;;;;;-0.25;100.00;103245.78;5047498;28;19960;-65
2023/01/22 09:34:51;;;;;;;;;;;;;;;-0.28;100.00;103251.38;5047395;28;19940;-62
2023/01/22 09:37:16;;;;;;;;;;;;;;;-0.23;100.00;103251.94;5045885;28;20367;-62
2023/01/22 09:39:41;;;;;;;;;;;;;;;-0.21;100.00;103250.00;5046281;28;19913;-63
2023/01/22 09:42:11;;;;;;;;;;;;;;;-0.14;100.00;103245.06;5047765;28;19921;-62
2023/01/22 09:44:38;;;;;;;;;;;;;;;0.03;100.00;103243.94;5047458;28;19917;-63
2023/01/22 09:47:05;;;;;;;;;;;;;;;0.25;100.00;103255.91;5048013;28;19956;-63
2023/01/22 09:49:35;;;;;;;;;;;;;;;0.40;100.00;103256.66;5081014;28;20576;-62
2023/01/22 09:52:01;;;;;;;;;;;;;;;0.43;100.00;103259.19;5066186;28;19917;-65
2023/01/22 09:54:28;;;;;;;;;;;;;;;0.49;100.00;103266.00;5066275;28;19961;-62
2023/01/22 09:56:55;;;;;;;;;;;;;;;0.49;100.00;103255.19;5066443;28;19958;-63
2023/01/22 09:59:22;;;;;;;;;;;;;;;0.49;100.00;103255.19;5066828;28;20074;-65
2023/01/22 10:01:55;;;;;;;;;;;;;;;0.44;100.00;103260.03;5066545;28;19917;-62
2023/01/22 10:04:26;;;;;;;;;;;;;;;0.54;100.00;103258.44;5066956;28;19916;-63
2023/01/22 10:06:53;;;;;;;;;;;;;;;0.30;100.00;103250.16;5066447;28;19924;-63
2023/01/22 10:09:19;;;;;;;;;;;;;;;0.30;100.00;103255.56;5065533;28;19969;-62
2023/01/22 10:11:48;;;;;;;;;;;;;;;0.66;100.00;103259.41;5066617;28;20332;-63
2023/01/22 10:14:15;;;;;;;;;;;;;;;0.27;100.00;103266.59;5066652;28;19980;-62
2023/01/22 10:16:40;;;;;;;;;;;;;;;0.21;100.00;103267.03;5066528;28;19974;-63
2023/01/22 10:19:15;;;;;;;;;;;;;;;0.13;100.00;103266.66;5066934;28;20018;-63
2023/01/22 10:21:41;;;;;;;;;;;;;;;0.13;100.00;103263.97;5066500;28;19912;-62
2023/01/22 10:24:08;;;;;;;;;;;;;;;0.18;100.00;103270.78;5065448;28;20131;-63
2023/01/22 10:26:38;;;;;;;;;;;;;;;0.16;100.00;103266.47;5067264;28;19913;-62
2023/01/22 10:29:08;;;;;;;;;;;;;;;0.13;100.00;103269.38;5066590;28;19923;-62
2023/01/22 10:31:35;;;;;;;;;;;;;;;0.14;100.00;103254.88;5066926;28;19913;-62
2023/01/22 10:34:09;;;;;;;;;;;;;;;0.13;100.00;103248.63;5066050;28;20015;-63
2023/01/22 10:36:34;;;;;;;;;;;;;;;0.13;100.00;103253.16;5049692;28;19920;-62
2023/01/22 10:39:03;;;;;;;;;;;;;;;0.13;100.00;103254.00;5044636;28;19917;-63
2023/01/22 10:41:29;;;;;;;;;;;;;;;0.15;100.00;103259.31;5046095;28;20311;-63
2023/01/22 10:43:54;;;;;;;;;;;;;;;0.14;100.00;103260.28;5046246;28;19917;-62
2023/01/22 10:46:23;;;;;;;;;;;;;;;0.16;100.00;103256.53;5046559;28;19917;-63
2023/01/22 10:49:08;;;;;;;;;;;;;;;0.17;100.00;103258.25;5059892;28;20010;-63
2023/01/22 10:51:38;;;;;;;;;;;;;;;0.18;100.00;103259.97;5070261;28;19916;-64
2023/01/22 10:54:17;;;;;;;;;;;;;;;0.15;100.00;103262.00;5069721;28;19931;-62
2023/01/22 10:56:42;;;;;;;;;;;;;;;0.15;100.00;103264.72;5069816;28;19917;-63
2023/01/22 10:59:17;;;;;;;;;;;;;;;0.11;100.00;103260.50;5070325;28;19923;-64
2023/01/22 11:01:43;;;;;;;;;;;;;;;0.10;100.00;103267.75;5069941;28;19916;-63
2023/01/22 11:04:22;;;;;;;;;;;;;;;0.14;100.00;103260.28;5070269;28;20418;-64
2023/01/22 11:06:49;;;;;;;;;;;;;;;0.15;100.00;103256.59;5069547;28;19917;-63
2023/01/22 11:09:16;;;;;;;;;;;;;;;0.22;100.00;103260.66;5069529;28;20019;-62
2023/01/22 11:11:43;;;;;;;;;;;;;;;0.20;100.00;103262.56;5069816;28;19916;-63
2023/01/22 11:14:38;;;;;;;;;;;;;;;0.24;100.00;103246.03;5069783;28;20001;-63
2023/01/22 11:17:19;;;;;;;;;;;;;;;0.33;100.00;103243.69;5065206;28;19916;-62
2023/01/22 11:19:48;;;;;;;;;;;;;;;0.40;100.00;103245.84;5069327;28;19981;-63
2023/01/22 11:22:20;;;;;;;;;;;;;;;0.41;100.00;103252.16;5068977;28;19917;-63
2023/01/22 11:24:47;;;;;;;;;;;;;;;0.46;100.00;103234.66;5069149;28;19916;-63
2023/01/22 11:27:18;;;;;;;;;;;;;;;0.47;100.00;103228.25;5069240;28;20390;-65
2023/01/22 11:29:55;;;;;;;;;;;;;;;0.48;100.00;103238.09;5069158;28;19985;-62
2023/01/22 11:32:28;;;;;;;;;;;;;;;0.51;100.00;103229.78;5069062;28;19917;-63
2023/01/22 11:34:56;;;;;;;;;;;;;;;0.57;100.00;103233.03;5069364;28;19916;-64
2023/01/22 11:37:39;;;;;;;;;;;;;;;0.72;100.00;103226.56;5067705;28;19916;-64
2023/01/22 11:40:07;;;;;;;;;;;;;;;0.75;100.00;103229.03;5069441;28;19919;-63
2023/01/22 11:42:35;;;;;;;;;;;;;;;0.79;100.00;103225.13;5069181;28;19920;-63
2023/01/22 11:45:01;;;;;;;;;;;;;;;0.88;100.00;103215.50;5069018;28;19940;-62
2023/01/22 11:47:38;;;;;;;;;;;;;;;1.08;100.00;103206.81;5069000;28;20477;-62
2023/01/22 11:50:12;;;;;;;;;;;;;;;1.38;100.00;103206.44;5069209;28;19924;-62
2023/01/22 11:52:46;;;;;;;;;;;;;;;1.58;100.00;103215.81;5067733;28;19946;-66
2023/01/22 11:55:30;;;;;;;;;;;;;;;1.56;100.00;103201.50;5068361;28;19916;-63
2023/01/22 11:58:07;;;;;;;;;;;;;;;1.48;100.00;103209.34;5068656;28;19916;-63
2023/01/22 12:00:32;;;;;;;;;;;;;;;1.49;100.00;103202.94;5057041;28;19917;-62
2023/01/22 12:03:01;;;;;;;;;;;;;;;1.54;100.00;103201.63;5048938;28;19988;-62
2023/01/22 12:05:45;;;;;;;;;;;;;;;1.60;100.00;103196.72;5049138;28;20333;-62
2023/01/22 12:08:11;;;;;;;;;;;;;;;1.51;100.00;103195.56;5071131;28;20401;-63
2023/01/22 12:10:46;;;;;;;;;;;;;;;1.45;100.00;103202.28;5062867;28;19974;-63
2023/01/22 12:13:11;;;;;;;;;;;;;;;1.34;100.00;103199.50;5050508;28;19924;-64
2023/01/22 12:15:55;;;;;;;;;;;;;;;1.21;100.00;103201.38;5051336;28;19920;-63
2023/01/22 12:18:38;;;;;;;;;;;;;;;1.11;100.00;103193.06;5062093;28;19921;-65
2023/01/22 12:21:06;;;;;;;;;;;;;;;1.14;100.00;103195.56;5071320;28;19913;-64
2023/01/22 12:23:32;;;;;;;;;;;;;;;1.17;100.00;103189.06;5069274;28;19991;-65
2023/01/22 12:26:01;;;;;;;;;;;;;;;1.19;100.00;103197.94;5066992;28;19920;-63
2023/01/22 12:28:48;;;;;;;;;;;;;;;1.24;100.00;103193.91;5070518;28;19916;-62
2023/01/22 12:31:29;;;;;;;;;;;;;;;1.22;100.00;103195.00;5050397;28;19924;-63
2023/01/22 12:33:57;;;;;;;;;;;;;;;1.16;100.00;103196.28;5057862;28;19978;-63